sensor_id;sensor_type;location;lat;lon;timestamp;temperature;humidity
2867;DHT22;1441;48.886;8.728;2023-03-03T00:00:44;1.60;99.40
2867;DHT22;1441;48.886;8.728;2023-03-03T00:03:15;1.90;98.70
2867;DHT22;1441;48.886;8.728;2023-03-03T00:05:42;2.00;97.60
2867;DHT22;1441;48.886;8.728;2023-03-03T00:08:08;1.90;97.80
2867;DHT22;1441;48.886;8.728;2023-03-03T00:10:35;2.10;97.60
2867;DHT22;1441;48.886;8.728;2023-03-03T00:13:00;2.10;96.70
2867;DHT22;1441;48.886;8.728;2023-03-03T00:15:26;2.00;97.10
2867;DHT22;1441;48.886;8.728;2023-03-03T00:17:53;1.90;97.50
2867;DHT22;1441;48.886;8.728;2023-03-03T00:20:35;1.80;98.10
2867;DHT22;1441;48.886;8.728;2023-03-03T00:23:31;2.00;97.90
2867;DHT22;1441;48.886;8.728;2023-03-03T00:25:59;2.00;97.70
2867;DHT22;1441;48.886;8.728;2023-03-03T00:30:53;1.70;98.70
2867;DHT22;1441;48.886;8.728;2023-03-03T00:33:28;1.50;99.60
2867;DHT22;1441;48.886;8.728;2023-03-03T00:36:09;1.40;99.90
2867;DHT22;1441;48.886;8.728;2023-03-03T00:38:46;1.60;99.90
2867;DHT22;1441;48.886;8.728;2023-03-03T00:41:30;1.50;99.90
2867;DHT22;1441;48.886;8.728;2023-03-03T00:43:56;1.80;99.50
2867;DHT22;1441;48.886;8.728;2023-03-03T00:46:22;1.80;98.90
2867;DHT22;1441;48.886;8.728;2023-03-03T00:48:49;1.60;99.10
2867;DHT22;1441;48.886;8.728;2023-03-03T00:53:47;1.50;99.90
2867;DHT22;1441;48.886;8.728;2023-03-03T00:56:13;1.50;99.70
2867;DHT22;1441;48.886;8.728;2023-03-03T00:58:39;1.40;99.90
2867;DHT22;1441;48.886;8.728;2023-03-03T01:01:04;1.60;99.80
2867;DHT22;1441;48.886;8.728;2023-03-03T01:03:30;1.80;99.30
2867;DHT22;1441;48.886;8.728;2023-03-03T01:05:56;1.80;98.80
2867;DHT22;1441;48.886;8.728;2023-03-03T01:08:22;1.60;99.40
2867;DHT22;1441;48.886;8.728;2023-03-03T01:10:53;1.60;99.80
2867;DHT22;1441;48.886;8.728;2023-03-03T01:13:21;1.60;99.90
2867;DHT22;1441;48.886;8.728;2023-03-03T01:15:48;1.40;99.90
2867;DHT22;1441;48.886;8.728;2023-03-03T01:18:14;1.40;99.90
2867;DHT22;1441;48.886;8.728;2023-03-03T01:20:40;1.20;99.90
2867;DHT22;1441;48.886;8.728;2023-03-03T01:23:06;1.10;99.90
2867;DHT22;1441;48.886;8.728;2023-03-03T01:25:33;1.10;99.90
2867;DHT22;1441;48.886;8.728;2023-03-03T01:27:58;1.10;99.90
2867;DHT22;1441;48.886;8.728;2023-03-03T01:30:24;1.10;99.90
2867;DHT22;1441;48.886;8.728;2023-03-03T01:32:51;1.10;99.90
2867;DHT22;1441;48.886;8.728;2023-03-03T01:35:16;1.10;99.90
2867;DHT22;1441;48.886;8.728;2023-03-03T01:37:42;1.10;99.90
2867;DHT22;1441;48.886;8.728;2023-03-03T01:40:14;1.10;99.90
2867;DHT22;1441;48.886;8.728;2023-03-03T01:42:39;1.20;99.90
2867;DHT22;1441;48.886;8.728;2023-03-03T01:53:13;1.00;99.90
2867;DHT22;1441;48.886;8.728;2023-03-03T01:55:41;1.20;99.90
2867;DHT22;1441;48.886;8.728;2023-03-03T01:58:15;1.40;99.90
2867;DHT22;1441;48.886;8.728;2023-03-03T02:00:45;1.50;99.90
2867;DHT22;1441;48.886;8.728;2023-03-03T02:03:11;1.60;99.90
2867;DHT22;1441;48.886;8.728;2023-03-03T02:05:37;1.60;99.40
2867;DHT22;1441;48.886;8.728;2023-03-03T02:08:04;1.40;99.80
2867;DHT22;1441;48.886;8.728;2023-03-03T02:10:31;1.30;99.90
2867;DHT22;1441;48.886;8.728;2023-03-03T02:12:57;1.10;99.90
2867;DHT22;1441;48.886;8.728;2023-03-03T02:15:27;1.00;99.90
2867;DHT22;1441;48.886;8.728;2023-03-03T02:17:55;1.00;99.90
2867;DHT22;1441;48.886;8.728;2023-03-03T02:23:20;0.90;99.90
2867;DHT22;1441;48.886;8.728;2023-03-03T02:28:28;1.00;99.90
2867;DHT22;1441;48.886;8.728;2023-03-03T02:30:55;0.90;99.90
2867;DHT22;1441;48.886;8.728;2023-03-03T02:33:21;0.90;99.90
2867;DHT22;1441;48.886;8.728;2023-03-03T02:35:47;0.80;99.90
2867;DHT22;1441;48.886;8.728;2023-03-03T02:44:01;1.00;99.90
2867;DHT22;1441;48.886;8.728;2023-03-03T02:46:38;0.90;99.90
2867;DHT22;1441;48.886;8.728;2023-03-03T02:49:06;1.00;99.90
2867;DHT22;1441;48.886;8.728;2023-03-03T02:51:32;0.80;99.90
2867;DHT22;1441;48.886;8.728;2023-03-03T02:53:58;0.70;99.90
2867;DHT22;1441;48.886;8.728;2023-03-03T02:56:23;0.70;99.90
2867;DHT22;1441;48.886;8.728;2023-03-03T02:58:49;0.70;99.90
2867;DHT22;1441;48.886;8.728;2023-03-03T03:01:15;0.80;99.90
2867;DHT22;1441;48.886;8.728;2023-03-03T03:03:40;0.90;99.90
2867;DHT22;1441;48.886;8.728;2023-03-03T03:06:06;1.10;99.90
2867;DHT22;1441;48.886;8.728;2023-03-03T03:08:32;1.00;99.90
2867;DHT22;1441;48.886;8.728;2023-03-03T03:10:57;1.10;99.90
2867;DHT22;1441;48.886;8.728;2023-03-03T03:13:23;1.20;99.90
2867;DHT22;1441;48.886;8.728;2023-03-03T03:15:50;0.90;99.90
2867;DHT22;1441;48.886;8.728;2023-03-03T03:18:16;1.00;99.90
2867;DHT22;1441;48.886;8.728;2023-03-03T03:20:42;0.80;99.90
2867;DHT22;1441;48.886;8.728;2023-03-03T03:23:08;0.70;99.90
2867;DHT22;1441;48.886;8.728;2023-03-03T03:25:34;0.60;99.90
2867;DHT22;1441;48.886;8.728;2023-03-03T03:28:02;0.90;99.90
2867;DHT22;1441;48.886;8.728;2023-03-03T03:30:27;0.90;99.90
2867;DHT22;1441;48.886;8.728;2023-03-03T03:32:53;0.70;99.90
2867;DHT22;1441;48.886;8.728;2023-03-03T03:35:18;0.60;99.90
2867;DHT22;1441;48.886;8.728;2023-03-03T03:37:44;0.60;99.90
2867;DHT22;1441;48.886;8.728;2023-03-03T03:40:10;0.50;99.90
2867;DHT22;1441;48.886;8.728;2023-03-03T03:42:36;0.40;99.90
2867;DHT22;1441;48.886;8.728;2023-03-03T03:45:05;0.40;99.90
2867;DHT22;1441;48.886;8.728;2023-03-03T03:47:31;0.40;99.90
2867;DHT22;1441;48.886;8.728;2023-03-03T03:49:56;0.30;99.90
2867;DHT22;1441;48.886;8.728;2023-03-03T03:52:22;0.30;99.90
2867;DHT22;1441;48.886;8.728;2023-03-03T03:54:47;0.30;99.90
2867;DHT22;1441;48.886;8.728;2023-03-03T03:57:13;0.30;99.90
2867;DHT22;1441;48.886;8.728;2023-03-03T03:59:39;0.40;99.90
2867;DHT22;1441;48.886;8.728;2023-03-03T04:02:04;0.80;99.90
2867;DHT22;1441;48.886;8.728;2023-03-03T04:04:30;0.80;99.90
2867;DHT22;1441;48.886;8.728;2023-03-03T04:06:56;0.70;99.90
2867;DHT22;1441;48.886;8.728;2023-03-03T04:09:21;0.60;99.90
2867;DHT22;1441;48.886;8.728;2023-03-03T04:11:47;0.60;99.90
2867;DHT22;1441;48.886;8.728;2023-03-03T04:14:12;0.70;99.90
2867;DHT22;1441;48.886;8.728;2023-03-03T04:16:38;0.80;99.90
2867;DHT22;1441;48.886;8.728;2023-03-03T04:19:03;0.80;99.90
2867;DHT22;1441;48.886;8.728;2023-03-03T04:21:29;0.80;99.90
2867;DHT22;1441;48.886;8.728;2023-03-03T04:23:55;0.90;99.90
2867;DHT22;1441;48.886;8.728;2023-03-03T04:26:20;1.00;99.90
2867;DHT22;1441;48.886;8.728;2023-03-03T04:28:46;1.10;99.90
2867;DHT22;1441;48.886;8.728;2023-03-03T04:31:11;1.00;99.90
2867;DHT22;1441;48.886;8.728;2023-03-03T04:33:37;1.00;99.90
2867;DHT22;1441;48.886;8.728;2023-03-03T04:36:03;1.00;99.90
2867;DHT22;1441;48.886;8.728;2023-03-03T04:38:29;1.10;99.90
2867;DHT22;1441;48.886;8.728;2023-03-03T04:40:55;1.50;99.90
2867;DHT22;1441;48.886;8.728;2023-03-03T04:43:21;1.60;99.90
2867;DHT22;1441;48.886;8.728;2023-03-03T04:45:47;1.60;99.90
2867;DHT22;1441;48.886;8.728;2023-03-03T04:48:13;1.50;99.90
2867;DHT22;1441;48.886;8.728;2023-03-03T04:50:38;1.30;99.90
2867;DHT22;1441;48.886;8.728;2023-03-03T04:53:04;1.20;99.90
2867;DHT22;1441;48.886;8.728;2023-03-03T04:55:29;1.10;99.90
2867;DHT22;1441;48.886;8.728;2023-03-03T04:57:55;1.10;99.90
2867;DHT22;1441;48.886;8.728;2023-03-03T05:00:20;1.10;99.90
2867;DHT22;1441;48.886;8.728;2023-03-03T05:02:47;1.00;99.90
2867;DHT22;1441;48.886;8.728;2023-03-03T05:05:13;1.10;99.90
2867;DHT22;1441;48.886;8.728;2023-03-03T05:07:39;1.10;99.90
2867;DHT22;1441;48.886;8.728;2023-03-03T05:10:06;1.10;99.90
2867;DHT22;1441;48.886;8.728;2023-03-03T05:12:32;1.20;99.90
2867;DHT22;1441;48.886;8.728;2023-03-03T05:14:57;1.20;99.90
2867;DHT22;1441;48.886;8.728;2023-03-03T05:17:23;1.30;99.90
2867;DHT22;1441;48.886;8.728;2023-03-03T05:19:49;1.50;99.90
2867;DHT22;1441;48.886;8.728;2023-03-03T05:22:14;1.70;99.90
2867;DHT22;1441;48.886;8.728;2023-03-03T05:24:40;1.70;99.90
2867;DHT22;1441;48.886;8.728;2023-03-03T05:27:07;1.60;99.90
2867;DHT22;1441;48.886;8.728;2023-03-03T05:29:33;1.70;99.90
2867;DHT22;1441;48.886;8.728;2023-03-03T05:31:59;1.80;99.90
2867;DHT22;1441;48.886;8.728;2023-03-03T05:34:25;1.80;99.90
2867;DHT22;1441;48.886;8.728;2023-03-03T05:36:50;1.70;99.90
2867;DHT22;1441;48.886;8.728;2023-03-03T05:39:16;1.70;99.90
2867;DHT22;1441;48.886;8.728;2023-03-03T05:41:42;1.60;99.90
2867;DHT22;1441;48.886;8.728;2023-03-03T05:44:08;1.60;99.90
2867;DHT22;1441;48.886;8.728;2023-03-03T05:46:33;1.50;99.90
2867;DHT22;1441;48.886;8.728;2023-03-03T05:48:59;1.50;99.90
2867;DHT22;1441;48.886;8.728;2023-03-03T05:51:25;1.50;99.90
2867;DHT22;1441;48.886;8.728;2023-03-03T05:53:50;1.50;99.90
2867;DHT22;1441;48.886;8.728;2023-03-03T05:56:16;1.50;99.90
2867;DHT22;1441;48.886;8.728;2023-03-03T05:58:42;1.60;99.90
2867;DHT22;1441;48.886;8.728;2023-03-03T06:01:07;1.50;99.90
2867;DHT22;1441;48.886;8.728;2023-03-03T06:03:39;1.50;99.90
2867;DHT22;1441;48.886;8.728;2023-03-03T06:06:05;1.70;99.90
2867;DHT22;1441;48.886;8.728;2023-03-03T06:08:31;2.00;99.90
2867;DHT22;1441;48.886;8.728;2023-03-03T06:10:57;2.10;99.90
2867;DHT22;1441;48.886;8.728;2023-03-03T06:13:22;1.90;99.90
2867;DHT22;1441;48.886;8.728;2023-03-03T06:15:48;1.80;99.90
2867;DHT22;1441;48.886;8.728;2023-03-03T06:18:13;1.80;99.90
2867;DHT22;1441;48.886;8.728;2023-03-03T06:20:39;1.70;99.90
2867;DHT22;1441;48.886;8.728;2023-03-03T06:23:05;1.70;99.90
2867;DHT22;1441;48.886;8.728;2023-03-03T06:25:30;1.70;99.90
2867;DHT22;1441;48.886;8.728;2023-03-03T06:27:56;1.80;99.90
2867;DHT22;1441;48.886;8.728;2023-03-03T06:30:22;1.90;99.90
2867;DHT22;1441;48.886;8.728;2023-03-03T06:32:48;1.80;99.90
2867;DHT22;1441;48.886;8.728;2023-03-03T06:35:13;1.70;99.90
2867;DHT22;1441;48.886;8.728;2023-03-03T06:37:39;1.80;99.90
2867;DHT22;1441;48.886;8.728;2023-03-03T06:40:05;1.80;99.90
2867;DHT22;1441;48.886;8.728;2023-03-03T06:42:31;1.80;99.90
2867;DHT22;1441;48.886;8.728;2023-03-03T06:44:56;1.80;99.90
2867;DHT22;1441;48.886;8.728;2023-03-03T06:47:22;1.90;99.90
2867;DHT22;1441;48.886;8.728;2023-03-03T06:49:47;2.00;99.90
2867;DHT22;1441;48.886;8.728;2023-03-03T06:52:18;2.00;99.90
2867;DHT22;1441;48.886;8.728;2023-03-03T06:54:44;2.00;99.90
2867;DHT22;1441;48.886;8.728;2023-03-03T06:59:41;2.10;99.90
2867;DHT22;1441;48.886;8.728;2023-03-03T07:02:15;2.10;99.90
2867;DHT22;1441;48.886;8.728;2023-03-03T07:04:41;2.20;99.90
2867;DHT22;1441;48.886;8.728;2023-03-03T07:09:48;2.20;99.90
2867;DHT22;1441;48.886;8.728;2023-03-03T07:12:19;2.20;99.90
2867;DHT22;1441;48.886;8.728;2023-03-03T07:14:51;2.10;99.90
2867;DHT22;1441;48.886;8.728;2023-03-03T07:17:21;2.10;99.90
2867;DHT22;1441;48.886;8.728;2023-03-03T07:19:48;2.10;99.90
2867;DHT22;1441;48.886;8.728;2023-03-03T07:22:23;2.10;99.90
2867;DHT22;1441;48.886;8.728;2023-03-03T07:24:51;2.20;99.90
2867;DHT22;1441;48.886;8.728;2023-03-03T07:27:27;2.20;99.90
2867;DHT22;1441;48.886;8.728;2023-03-03T07:29:54;2.20;99.90
2867;DHT22;1441;48.886;8.728;2023-03-03T07:32:44;2.30;99.90
2867;DHT22;1441;48.886;8.728;2023-03-03T07:38:02;2.50;97.70
2867;DHT22;1441;48.886;8.728;2023-03-03T07:40:36;2.60;97.70
2867;DHT22;1441;48.886;8.728;2023-03-03T07:43:35;2.70;97.90
2867;DHT22;1441;48.886;8.728;2023-03-03T07:48:47;2.90;97.20
2867;DHT22;1441;48.886;8.728;2023-03-03T07:51:42;3.00;97.50
2867;DHT22;1441;48.886;8.728;2023-03-03T07:54:25;3.00;97.20
2867;DHT22;1441;48.886;8.728;2023-03-03T07:59:45;3.10;95.90
2867;DHT22;1441;48.886;8.728;2023-03-03T08:08:10;3.00;97.50
2867;DHT22;1441;48.886;8.728;2023-03-03T08:10:42;3.00;97.00
2867;DHT22;1441;48.886;8.728;2023-03-03T08:15:48;3.10;97.40
2867;DHT22;1441;48.886;8.728;2023-03-03T08:18:39;3.10;97.60
2867;DHT22;1441;48.886;8.728;2023-03-03T08:21:14;3.10;97.20
2867;DHT22;1441;48.886;8.728;2023-03-03T08:23:41;3.10;96.80
2867;DHT22;1441;48.886;8.728;2023-03-03T08:26:07;3.20;96.30
2867;DHT22;1441;48.886;8.728;2023-03-03T08:28:32;3.30;96.20
2867;DHT22;1441;48.886;8.728;2023-03-03T08:30:58;3.40;95.90
2867;DHT22;1441;48.886;8.728;2023-03-03T08:33:24;3.60;95.70
2867;DHT22;1441;48.886;8.728;2023-03-03T08:35:49;3.80;95.00
2867;DHT22;1441;48.886;8.728;2023-03-03T08:38:18;4.00;94.70
2867;DHT22;1441;48.886;8.728;2023-03-03T08:40:44;4.30;93.10
2867;DHT22;1441;48.886;8.728;2023-03-03T08:43:10;4.70;91.50
2867;DHT22;1441;48.886;8.728;2023-03-03T08:45:45;5.20;89.20
2867;DHT22;1441;48.886;8.728;2023-03-03T08:48:12;5.80;86.60
2867;DHT22;1441;48.886;8.728;2023-03-03T08:50:39;6.20;84.70
2867;DHT22;1441;48.886;8.728;2023-03-03T08:53:05;6.30;83.90
2867;DHT22;1441;48.886;8.728;2023-03-03T08:55:30;6.20;83.20
2867;DHT22;1441;48.886;8.728;2023-03-03T08:57:56;6.10;83.20
2867;DHT22;1441;48.886;8.728;2023-03-03T09:00:22;6.00;83.00
2867;DHT22;1441;48.886;8.728;2023-03-03T09:02:50;6.00;82.60
2867;DHT22;1441;48.886;8.728;2023-03-03T09:05:18;6.00;82.00
2867;DHT22;1441;48.886;8.728;2023-03-03T09:07:45;6.00;83.10
2867;DHT22;1441;48.886;8.728;2023-03-03T09:10:13;6.10;82.80
2867;DHT22;1441;48.886;8.728;2023-03-03T09:12:41;6.20;83.50
2867;DHT22;1441;48.886;8.728;2023-03-03T09:17:41;6.30;83.60
2867;DHT22;1441;48.886;8.728;2023-03-03T09:22:43;6.50;82.50
2867;DHT22;1441;48.886;8.728;2023-03-03T09:25:33;7.40;80.40
2867;DHT22;1441;48.886;8.728;2023-03-03T09:28:00;7.80;78.70
2867;DHT22;1441;48.886;8.728;2023-03-03T09:30:34;7.40;79.90
2867;DHT22;1441;48.886;8.728;2023-03-03T09:33:01;7.00;81.10
2867;DHT22;1441;48.886;8.728;2023-03-03T09:35:41;7.40;80.60
2867;DHT22;1441;48.886;8.728;2023-03-03T09:38:27;8.50;75.30
2867;DHT22;1441;48.886;8.728;2023-03-03T09:41:38;8.80;73.90
2867;DHT22;1441;48.886;8.728;2023-03-03T09:44:12;8.90;71.70
2867;DHT22;1441;48.886;8.728;2023-03-03T09:49:49;7.50;76.50
2867;DHT22;1441;48.886;8.728;2023-03-03T09:55:19;7.10;79.70
2867;DHT22;1441;48.886;8.728;2023-03-03T10:00:35;6.90;79.90
2867;DHT22;1441;48.886;8.728;2023-03-03T10:12:14;7.10;79.50
2867;DHT22;1441;48.886;8.728;2023-03-03T10:17:50;7.20;78.10
2867;DHT22;1441;48.886;8.728;2023-03-03T10:20:37;7.20;78.10
2867;DHT22;1441;48.886;8.728;2023-03-03T10:25:42;7.40;77.90
2867;DHT22;1441;48.886;8.728;2023-03-03T10:31:11;7.70;77.50
2867;DHT22;1441;48.886;8.728;2023-03-03T10:34:09;7.60;77.10
2867;DHT22;1441;48.886;8.728;2023-03-03T10:36:45;7.80;77.60
2867;DHT22;1441;48.886;8.728;2023-03-03T10:39:53;7.90;76.70
2867;DHT22;1441;48.886;8.728;2023-03-03T10:42:54;8.00;76.80
2867;DHT22;1441;48.886;8.728;2023-03-03T10:45:48;7.90;76.30
2867;DHT22;1441;48.886;8.728;2023-03-03T11:02:40;8.40;75.30
2867;DHT22;1441;48.886;8.728;2023-03-03T11:05:21;8.60;73.20
2867;DHT22;1441;48.886;8.728;2023-03-03T11:08:03;8.90;72.60
2867;DHT22;1441;48.886;8.728;2023-03-03T11:15:43;8.80;74.00
2867;DHT22;1441;48.886;8.728;2023-03-03T11:18:34;8.80;74.10
2867;DHT22;1441;48.886;8.728;2023-03-03T11:21:12;8.90;74.10
2867;DHT22;1441;48.886;8.728;2023-03-03T11:29:34;9.40;74.40
2867;DHT22;1441;48.886;8.728;2023-03-03T11:32:46;9.90;71.80
2867;DHT22;1441;48.886;8.728;2023-03-03T11:35:24;10.20;70.60
2867;DHT22;1441;48.886;8.728;2023-03-03T11:38:02;10.20;69.90
2867;DHT22;1441;48.886;8.728;2023-03-03T11:40:40;9.90;72.00
2867;DHT22;1441;48.886;8.728;2023-03-03T11:43:33;9.60;73.00
2867;DHT22;1441;48.886;8.728;2023-03-03T11:46:08;9.50;73.10
2867;DHT22;1441;48.886;8.728;2023-03-03T11:48:51;9.80;70.80
2867;DHT22;1441;48.886;8.728;2023-03-03T11:54:00;9.80;70.50
2867;DHT22;1441;48.886;8.728;2023-03-03T11:56:39;9.90;70.10
2867;DHT22;1441;48.886;8.728;2023-03-03T12:04:58;9.50;69.80
2867;DHT22;1441;48.886;8.728;2023-03-03T12:07:40;9.40;69.80
2867;DHT22;1441;48.886;8.728;2023-03-03T12:10:18;9.60;70.10
2867;DHT22;1441;48.886;8.728;2023-03-03T12:13:56;9.50;69.70
2867;DHT22;1441;48.886;8.728;2023-03-03T12:16:19;9.40;69.80
2867;DHT22;1441;48.886;8.728;2023-03-03T12:18:52;9.30;69.70
2867;DHT22;1441;48.886;8.728;2023-03-03T12:30:05;9.70;70.20
2867;DHT22;1441;48.886;8.728;2023-03-03T12:33:05;9.70;69.10
2867;DHT22;1441;48.886;8.728;2023-03-03T12:38:34;9.80;70.80
2867;DHT22;1441;48.886;8.728;2023-03-03T12:43:46;10.60;67.80
2867;DHT22;1441;48.886;8.728;2023-03-03T12:48:52;10.60;68.00
2867;DHT22;1441;48.886;8.728;2023-03-03T12:51:40;10.70;67.50
2867;DHT22;1441;48.886;8.728;2023-03-03T12:57:10;10.80;67.10
2867;DHT22;1441;48.886;8.728;2023-03-03T13:02:37;10.80;67.00
2867;DHT22;1441;48.886;8.728;2023-03-03T13:05:32;10.70;68.50
2867;DHT22;1441;48.886;8.728;2023-03-03T13:08:23;10.90;67.60
2867;DHT22;1441;48.886;8.728;2023-03-03T13:11:17;11.00;67.90
2867;DHT22;1441;48.886;8.728;2023-03-03T13:16:40;11.30;66.20
2867;DHT22;1441;48.886;8.728;2023-03-03T13:19:15;11.20;66.20
2867;DHT22;1441;48.886;8.728;2023-03-03T13:22:31;11.10;66.80
2867;DHT22;1441;48.886;8.728;2023-03-03T13:24:56;11.10;67.50
2867;DHT22;1441;48.886;8.728;2023-03-03T13:27:29;11.00;68.00
2867;DHT22;1441;48.886;8.728;2023-03-03T13:32:41;10.90;67.60
2867;DHT22;1441;48.886;8.728;2023-03-03T13:37:47;10.90;67.60
2867;DHT22;1441;48.886;8.728;2023-03-03T13:40:47;10.80;68.30
2867;DHT22;1441;48.886;8.728;2023-03-03T13:43:21;10.80;68.70
2867;DHT22;1441;48.886;8.728;2023-03-03T13:46:11;10.80;70.70
2867;DHT22;1441;48.886;8.728;2023-03-03T13:49:04;10.80;70.80
2867;DHT22;1441;48.886;8.728;2023-03-03T13:51:56;11.10;70.10
2867;DHT22;1441;48.886;8.728;2023-03-03T14:05:36;11.20;68.50
2867;DHT22;1441;48.886;8.728;2023-03-03T14:10:53;11.20;67.70
2867;DHT22;1441;48.886;8.728;2023-03-03T14:13:29;11.20;67.40
2867;DHT22;1441;48.886;8.728;2023-03-03T14:16:14;11.30;69.70
2867;DHT22;1441;48.886;8.728;2023-03-03T14:18:57;11.30;69.80
2867;DHT22;1441;48.886;8.728;2023-03-03T14:24:16;11.40;69.30
2867;DHT22;1441;48.886;8.728;2023-03-03T14:26:56;11.70;67.60
2867;DHT22;1441;48.886;8.728;2023-03-03T14:31:51;11.50;68.50
2867;DHT22;1441;48.886;8.728;2023-03-03T14:36:50;11.90;67.10
2867;DHT22;1441;48.886;8.728;2023-03-03T14:39:38;11.80;66.30
2867;DHT22;1441;48.886;8.728;2023-03-03T14:44:56;11.80;66.20
2867;DHT22;1441;48.886;8.728;2023-03-03T14:47:26;11.60;66.20
2867;DHT22;1441;48.886;8.728;2023-03-03T14:49:54;11.50;66.10
2867;DHT22;1441;48.886;8.728;2023-03-03T14:52:23;11.50;66.30
2867;DHT22;1441;48.886;8.728;2023-03-03T14:54:52;11.60;67.20
2867;DHT22;1441;48.886;8.728;2023-03-03T14:57:39;11.50;67.20
2867;DHT22;1441;48.886;8.728;2023-03-03T15:02:43;11.30;67.00
2867;DHT22;1441;48.886;8.728;2023-03-03T15:05:25;11.30;66.60
2867;DHT22;1441;48.886;8.728;2023-03-03T15:07:56;11.30;66.80
2867;DHT22;1441;48.886;8.728;2023-03-03T15:12:58;11.40;66.90
2867;DHT22;1441;48.886;8.728;2023-03-03T15:15:32;11.30;67.20
2867;DHT22;1441;48.886;8.728;2023-03-03T15:18:00;11.30;66.90
2867;DHT22;1441;48.886;8.728;2023-03-03T15:20:34;11.20;67.60
2867;DHT22;1441;48.886;8.728;2023-03-03T15:23:27;11.10;69.90
2867;DHT22;1441;48.886;8.728;2023-03-03T15:26:03;11.20;68.70
2867;DHT22;1441;48.886;8.728;2023-03-03T15:31:44;11.30;66.90
2867;DHT22;1441;48.886;8.728;2023-03-03T15:39:39;10.80;70.40
2867;DHT22;1441;48.886;8.728;2023-03-03T15:50:43;10.50;71.60
2867;DHT22;1441;48.886;8.728;2023-03-03T16:01:39;10.50;70.70
2867;DHT22;1441;48.886;8.728;2023-03-03T16:04:10;10.30;71.40
2867;DHT22;1441;48.886;8.728;2023-03-03T16:09:38;10.00;72.60
2867;DHT22;1441;48.886;8.728;2023-03-03T16:14:53;9.90;72.40
2867;DHT22;1441;48.886;8.728;2023-03-03T16:20:32;9.80;73.20
2867;DHT22;1441;48.886;8.728;2023-03-03T16:23:22;9.60;73.60
2867;DHT22;1441;48.886;8.728;2023-03-03T16:29:31;9.60;73.40
2867;DHT22;1441;48.886;8.728;2023-03-03T16:35:04;9.40;73.70
2867;DHT22;1441;48.886;8.728;2023-03-03T16:40:42;9.30;74.20
2867;DHT22;1441;48.886;8.728;2023-03-03T16:43:21;9.10;76.20
2867;DHT22;1441;48.886;8.728;2023-03-03T16:45:47;9.00;75.50
2867;DHT22;1441;48.886;8.728;2023-03-03T16:48:37;9.00;75.30
2867;DHT22;1441;48.886;8.728;2023-03-03T16:51:20;8.80;76.50
2867;DHT22;1441;48.886;8.728;2023-03-03T16:54:07;8.70;77.00
2867;DHT22;1441;48.886;8.728;2023-03-03T17:10:31;8.10;79.50
2867;DHT22;1441;48.886;8.728;2023-03-03T17:13:18;8.00;79.80
2867;DHT22;1441;48.886;8.728;2023-03-03T17:16:04;7.90;80.00
2867;DHT22;1441;48.886;8.728;2023-03-03T17:21:30;7.80;80.40
2867;DHT22;1441;48.886;8.728;2023-03-03T17:29:49;7.50;81.10
2867;DHT22;1441;48.886;8.728;2023-03-03T17:32:42;7.40;81.60
2867;DHT22;1441;48.886;8.728;2023-03-03T17:40:54;7.30;82.30
2867;DHT22;1441;48.886;8.728;2023-03-03T17:44:02;7.20;82.20
2867;DHT22;1441;48.886;8.728;2023-03-03T17:46:34;7.10;81.90
2867;DHT22;1441;48.886;8.728;2023-03-03T17:52:05;7.00;82.20
2867;DHT22;1441;48.886;8.728;2023-03-03T17:57:24;6.90;83.30
2867;DHT22;1441;48.886;8.728;2023-03-03T18:00:21;6.80;83.40
2867;DHT22;1441;48.886;8.728;2023-03-03T18:08:36;6.60;83.70
2867;DHT22;1441;48.886;8.728;2023-03-03T18:22:44;6.40;84.20
2867;DHT22;1441;48.886;8.728;2023-03-03T18:25:15;6.40;84.30
2867;DHT22;1441;48.886;8.728;2023-03-03T18:27:42;6.30;84.90
2867;DHT22;1441;48.886;8.728;2023-03-03T18:32:59;6.20;85.00
2867;DHT22;1441;48.886;8.728;2023-03-03T18:35:33;6.20;84.70
2867;DHT22;1441;48.886;8.728;2023-03-03T18:40:50;6.10;84.80
2867;DHT22;1441;48.886;8.728;2023-03-03T18:49:01;6.10;85.40
2867;DHT22;1441;48.886;8.728;2023-03-03T19:15:58;5.60;86.70
2867;DHT22;1441;48.886;8.728;2023-03-03T19:21:24;5.60;86.10
2867;DHT22;1441;48.886;8.728;2023-03-03T19:24:01;5.50;86.30
2867;DHT22;1441;48.886;8.728;2023-03-03T19:35:34;5.40;86.90
2867;DHT22;1441;48.886;8.728;2023-03-03T19:38:06;5.30;87.80
2867;DHT22;1441;48.886;8.728;2023-03-03T19:40:50;5.20;87.50
2867;DHT22;1441;48.886;8.728;2023-03-03T19:43:42;5.10;87.50
2867;DHT22;1441;48.886;8.728;2023-03-03T19:48:52;5.00;87.80
2867;DHT22;1441;48.886;8.728;2023-03-03T19:53:52;5.00;88.50
2867;DHT22;1441;48.886;8.728;2023-03-03T19:56:38;5.10;88.30
2867;DHT22;1441;48.886;8.728;2023-03-03T20:02:10;5.00;88.40
2867;DHT22;1441;48.886;8.728;2023-03-03T20:27:05;4.30;90.70
2867;DHT22;1441;48.886;8.728;2023-03-03T20:40:47;3.90;92.00
2867;DHT22;1441;48.886;8.728;2023-03-03T20:48:32;3.80;92.30
2867;DHT22;1441;48.886;8.728;2023-03-03T20:51:07;3.80;92.10
2867;DHT22;1441;48.886;8.728;2023-03-03T20:53:41;3.80;91.40
2867;DHT22;1441;48.886;8.728;2023-03-03T20:56:30;3.80;91.50
2867;DHT22;1441;48.886;8.728;2023-03-03T21:04:30;3.80;91.30
2867;DHT22;1441;48.886;8.728;2023-03-03T21:06:57;3.80;91.10
2867;DHT22;1441;48.886;8.728;2023-03-03T21:09:34;3.70;91.10
2867;DHT22;1441;48.886;8.728;2023-03-03T21:12:25;3.70;91.60
2867;DHT22;1441;48.886;8.728;2023-03-03T21:15:05;3.70;91.40
2867;DHT22;1441;48.886;8.728;2023-03-03T21:17:32;3.60;91.80
2867;DHT22;1441;48.886;8.728;2023-03-03T21:20:18;3.50;92.20
2867;DHT22;1441;48.886;8.728;2023-03-03T21:22:45;3.40;93.10
2867;DHT22;1441;48.886;8.728;2023-03-03T21:25:48;3.30;93.70
2867;DHT22;1441;48.886;8.728;2023-03-03T21:31:05;3.30;93.80
2867;DHT22;1441;48.886;8.728;2023-03-03T21:33:39;3.20;93.90
2867;DHT22;1441;48.886;8.728;2023-03-03T21:36:08;3.20;94.00
2867;DHT22;1441;48.886;8.728;2023-03-03T21:38:35;3.10;94.10
2867;DHT22;1441;48.886;8.728;2023-03-03T21:41:02;3.10;94.30
2867;DHT22;1441;48.886;8.728;2023-03-03T21:46:03;3.10;93.80
2867;DHT22;1441;48.886;8.728;2023-03-03T21:48:29;3.30;92.70
2867;DHT22;1441;48.886;8.728;2023-03-03T21:50:55;3.30;92.00
2867;DHT22;1441;48.886;8.728;2023-03-03T21:53:21;3.30;92.40
2867;DHT22;1441;48.886;8.728;2023-03-03T21:55:51;3.20;92.00
2867;DHT22;1441;48.886;8.728;2023-03-03T21:58:17;2.90;93.10
2867;DHT22;1441;48.886;8.728;2023-03-03T22:00:43;2.80;93.80
2867;DHT22;1441;48.886;8.728;2023-03-03T22:03:09;2.90;93.70
2867;DHT22;1441;48.886;8.728;2023-03-03T22:05:35;2.80;93.90
2867;DHT22;1441;48.886;8.728;2023-03-03T22:08:01;2.70;94.50
2867;DHT22;1441;48.886;8.728;2023-03-03T22:10:26;2.70;94.50
2867;DHT22;1441;48.886;8.728;2023-03-03T22:12:52;2.70;94.30
2867;DHT22;1441;48.886;8.728;2023-03-03T22:15:17;2.60;94.30
2867;DHT22;1441;48.886;8.728;2023-03-03T22:17:43;2.60;94.40
2867;DHT22;1441;48.886;8.728;2023-03-03T22:20:10;2.60;94.70
2867;DHT22;1441;48.886;8.728;2023-03-03T22:22:36;2.50;94.80
2867;DHT22;1441;48.886;8.728;2023-03-03T22:25:01;2.60;94.80
2867;DHT22;1441;48.886;8.728;2023-03-03T22:27:27;2.50;94.50
2867;DHT22;1441;48.886;8.728;2023-03-03T22:29:53;2.40;94.90
2867;DHT22;1441;48.886;8.728;2023-03-03T22:32:18;2.50;95.10
2867;DHT22;1441;48.886;8.728;2023-03-03T22:34:44;2.40;94.80
2867;DHT22;1441;48.886;8.728;2023-03-03T22:37:09;2.50;95.10
2867;DHT22;1441;48.886;8.728;2023-03-03T22:39:35;2.50;95.00
2867;DHT22;1441;48.886;8.728;2023-03-03T22:42:01;2.50;94.70
2867;DHT22;1441;48.886;8.728;2023-03-03T22:44:27;2.50;94.70
2867;DHT22;1441;48.886;8.728;2023-03-03T22:46:52;2.50;94.90
2867;DHT22;1441;48.886;8.728;2023-03-03T22:49:18;2.50;95.10
2867;DHT22;1441;48.886;8.728;2023-03-03T22:51:43;2.40;95.00
2867;DHT22;1441;48.886;8.728;2023-03-03T22:54:09;2.40;95.30
2867;DHT22;1441;48.886;8.728;2023-03-03T22:56:34;2.40;95.50